Juneau, WI

8:11 AM CST en Diciembre 04, 2016 (GMT -0600)
Georgetown Heights | | Change Station
Aviso en curso: Winter Weather Advisory

Alt 902 ft 43.46 °N, 88.81 °W | Updated 24 seconds ago

Light Snow
Débil nevada
30.0 ° F
Sensación térmica 30 ° F
N
0.0
Viento Variable Viento desde Oeste

Hoy
Alta -- | Baja -- ° F
--% Posibilidad de precipitaciones
Ayer
Alta -- | Baja -- ° F
Precip. -- pul
Presión 30.12 pul
Visibilidad 3.0 Millas
Nubes Muy nublado 2700 ft
Muy nublado 3600 ft
Nublado 4400 ft
Vientos helados 30 ° F
Punto de rocío 27 ° F
Humedad 91%
Precipitaciones 0.00 pul
Espesor de la nieve No disponible.
7:11 AM 4:19 PM
Creciente, 23% visible
METAR KUNU 041355Z AUTO 13004KT 3SM -SN BKN027 BKN036 OVC044 M01/M02 A3012 RMK AO2 T10151023
Presión 30.12 pul
Visibilidad 3.0 Millas
Nubes Muy nublado 2700 ft
Muy nublado 3600 ft
Nublado 4400 ft
Vientos helados 30 ° F
Punto de rocío 27 ° F
Humedad 91%
Precipitaciones 0.00 pul
Espesor de la nieve No disponible.
7:11 AM 4:19 PM
Creciente, 23% visible
METAR KUNU 041355Z AUTO 13004KT 3SM -SN BKN027 BKN036 OVC044 M01/M02 A3012 RMK AO2 T10151023

10-Day Weather Forecast

Almanac

Astronomía

Dec. 04, 2016 Salida Puesta
Hora real
Crepúsculo civil
Crepúsculo náutico
Crepúsculo astronómico
Luna
Horas de luz
Horas de luz
Tomorrow will be .
, % of the Moon is Illuminated

Extremos de hoy

Máximos del estado Bajos del estado

Community

WunderPhotos

Upload Photos

1,955,598 ¡fotos cargadas!

WunderBlog® & News

Nearby

Calidad del aire

  Calidad del aire Índice AQ Contaminante
Not available.

Grosos de nieve

Estación Profundido Altura

Actividad de terremotos

Ciudad Distance Mag. Tiempo y dato
Magnitud mínima muestra es 2,5.

Temperaturas de aguas costeras

Lugar Temperatura

Stations

Estaciones meteorológicas cercanas

Ubicación de la estación Temp. Vientos helados Punto de rocío Humedad Viento Precip. Alt Actualizado Tipo
                   

Watches & Warnings

Winter Weather Advisory
Issued: 6:51 AM CST Dec. 4, 2016 – National Weather Service

... Winter Weather Advisory remains in effect until 6 PM CST this
evening...

A Winter Weather Advisory remains in effect until 6 PM CST this
evening.

* Timing... steady snow beginning by mid-morning... tapering off
during the late afternoon or early evening.

* Snow accumulations... 3 to 5 inches.

* Winds... south to southeast increasing to 10 to 15 mph with
gusts to 20 mph.

* Impacts... reduced visibility and slippery spots on untreated
roads creating hazardous travel.

Precautionary/preparedness actions...

A Winter Weather Advisory for snow means that periods of snow
will cause primarily travel difficulties. Be prepared for snow
covered roads and limited visibilities... and use caution while
driving.